createdAt,value
2019-05-05T00:00:27.545Z,0
2019-05-05T00:01:27.617Z,0
2019-05-05T00:02:27.565Z,0
2019-05-05T00:03:27.679Z,0
2019-05-05T00:04:27.697Z,0
2019-05-05T00:05:27.825Z,0
2019-05-05T00:06:27.980Z,0
2019-05-05T00:07:28.100Z,0
2019-05-05T00:08:28.165Z,0
2019-05-05T00:09:28.277Z,0
2019-05-05T00:10:28.405Z,0
2019-05-05T00:11:28.552Z,0
2019-05-05T00:12:28.693Z,0
2019-05-05T00:13:29.813Z,0
2019-05-05T00:14:28.939Z,0
2019-05-05T00:15:29.066Z,0
2019-05-05T00:16:29.210Z,0
2019-05-05T00:17:29.168Z,0
2019-05-05T00:18:29.301Z,0
2019-05-05T00:19:33.011Z,0
2019-05-05T00:20:29.501Z,0
2019-05-05T00:21:29.659Z,0
2019-05-05T00:22:29.809Z,0
2019-05-05T00:23:29.936Z,0
2019-05-05T00:24:30.044Z,0
2019-05-05T00:25:30.163Z,0
2019-05-05T00:26:30.221Z,0
2019-05-05T00:27:30.384Z,0
2019-05-05T00:28:30.503Z,0
2019-05-05T00:29:30.649Z,0
2019-05-05T00:30:30.752Z,0
2019-05-05T00:31:31.014Z,0
2019-05-05T00:32:30.992Z,0
2019-05-05T00:33:31.098Z,0
2019-05-05T00:34:31.227Z,0
2019-05-05T00:35:31.338Z,0
2019-05-05T00:36:31.486Z,0
2019-05-05T00:37:31.629Z,0
2019-05-05T00:38:31.761Z,0
2019-05-05T00:39:31.866Z,0
2019-05-05T00:40:31.985Z,0
2019-05-05T00:41:32.161Z,0
2019-05-05T00:42:32.294Z,0
2019-05-05T00:43:34.334Z,0
2019-05-05T00:44:32.533Z,0
2019-05-05T00:45:34.325Z,0
2019-05-05T00:46:32.713Z,0
2019-05-05T00:47:34.411Z,0
2019-05-05T00:48:34.881Z,0
2019-05-05T00:49:44.007Z,0
2019-05-05T00:50:34.410Z,0
2019-05-05T00:51:34.783Z,0
2019-05-05T00:52:35.140Z,0
2019-05-05T00:53:34.207Z,0
2019-05-05T00:54:34.650Z,0
2019-05-05T00:55:34.944Z,0
2019-05-05T00:56:34.683Z,0
2019-05-05T00:57:34.755Z,0
2019-05-05T00:58:35.276Z,0
2019-05-05T00:59:34.717Z,0
2019-05-05T01:00:34.917Z,0
2019-05-05T01:01:35.216Z,0
2019-05-05T01:02:35.313Z,0
2019-05-05T01:03:35.431Z,0
2019-05-05T01:04:35.198Z,0
2019-05-05T01:05:35.570Z,0
2019-05-05T01:06:35.683Z,0
2019-05-05T01:07:35.813Z,0
2019-05-05T01:08:35.321Z,0
2019-05-05T01:09:35.806Z,0
2019-05-05T01:10:35.926Z,0
2019-05-05T01:11:35.638Z,0
2019-05-05T01:12:36.189Z,0
2019-05-05T01:13:35.275Z,0
2019-05-05T01:14:36.283Z,0
2019-05-05T01:15:35.328Z,0
2019-05-05T01:16:36.400Z,0
2019-05-05T01:17:35.483Z,0
2019-05-05T01:18:35.559Z,0
2019-05-05T01:19:35.618Z,0
2019-05-05T01:20:36.671Z,0
2019-05-05T01:21:35.759Z,0
2019-05-05T01:22:36.828Z,0
2019-05-05T01:23:35.903Z,0
2019-05-05T01:24:36.889Z,0
2019-05-05T01:25:35.922Z,0
2019-05-05T01:26:36.944Z,0
2019-05-05T01:27:36.106Z,0
2019-05-05T01:28:36.248Z,0
2019-05-05T01:29:36.383Z,0
2019-05-05T01:30:36.518Z,0
2019-05-05T01:31:36.501Z,0
2019-05-05T01:32:36.534Z,0
2019-05-05T01:33:36.584Z,0
2019-05-05T01:34:36.714Z,0
2019-05-05T01:35:36.828Z,0
2019-05-05T01:36:36.946Z,0
2019-05-05T01:37:37.073Z,0
2019-05-05T01:38:37.239Z,0
2019-05-05T01:39:37.200Z,0
2019-05-05T01:40:37.384Z,0
2019-05-05T01:41:37.493Z,0
2019-05-05T01:42:37.596Z,0
2019-05-05T01:43:37.737Z,0
2019-05-05T01:44:37.846Z,0
2019-05-05T01:45:37.866Z,0
2019-05-05T01:46:37.960Z,0
2019-05-05T01:47:38.130Z,0
2019-05-05T01:48:38.271Z,0
2019-05-05T01:49:38.377Z,0
2019-05-05T01:50:38.386Z,0
2019-05-05T01:51:38.500Z,0
2019-05-05T01:52:38.613Z,0
2019-05-05T01:53:38.654Z,0
2019-05-05T01:54:38.787Z,0
2019-05-05T01:55:38.891Z,0
2019-05-05T01:56:39.053Z,0
2019-05-05T01:57:39.119Z,0
2019-05-05T01:58:39.300Z,0
2019-05-05T01:59:39.352Z,0
2019-05-05T02:00:39.459Z,0
2019-05-05T02:01:39.539Z,0
2019-05-05T02:02:39.671Z,0
2019-05-05T02:03:39.790Z,0
2019-05-05T02:04:39.932Z,0
2019-05-05T02:05:39.914Z,0
2019-05-05T02:06:40.042Z,0
2019-05-05T02:07:40.149Z,0
2019-05-05T02:08:40.141Z,0
2019-05-05T02:09:40.306Z,0
2019-05-05T02:10:40.311Z,0
2019-05-05T02:11:40.375Z,0
2019-05-05T02:12:40.509Z,0
2019-05-05T02:13:40.551Z,0
2019-05-05T02:14:40.684Z,0
2019-05-05T02:15:40.788Z,0
2019-05-05T02:16:40.820Z,0
2019-05-05T02:17:40.949Z,0
2019-05-05T02:18:40.977Z,0
2019-05-05T02:19:41.118Z,0
2019-05-05T02:20:41.232Z,0
2019-05-05T02:21:41.354Z,0
2019-05-05T02:22:41.359Z,0
2019-05-05T02:23:41.510Z,0
2019-05-05T02:24:41.520Z,0
2019-05-05T02:25:41.649Z,0
2019-05-05T02:26:41.772Z,0
2019-05-05T02:27:41.876Z,0
2019-05-05T02:28:41.999Z,0
2019-05-05T02:29:42.138Z,0
2019-05-05T02:30:42.275Z,0
2019-05-05T02:31:45.139Z,0
2019-05-05T02:32:44.869Z,0
2019-05-05T02:33:45.721Z,0
2019-05-05T02:34:45.375Z,0
2019-05-05T02:35:45.476Z,0
2019-05-05T02:36:45.631Z,0
2019-05-05T02:37:45.627Z,0
2019-05-05T02:38:45.806Z,0
2019-05-05T02:39:49.860Z,0
2019-05-05T02:40:45.162Z,0
2019-05-05T02:41:45.169Z,0
2019-05-05T02:42:45.506Z,0
2019-05-05T02:43:45.029Z,0
2019-05-05T02:44:45.486Z,0
2019-05-05T02:45:44.656Z,0
2019-05-05T02:46:44.602Z,0
2019-05-05T02:47:45.186Z,0
2019-05-05T02:48:44.969Z,0
2019-05-05T02:49:45.488Z,0
2019-05-05T02:50:52.262Z,0
2019-05-05T02:51:44.769Z,0
2019-05-05T02:52:44.415Z,0
2019-05-05T02:53:44.679Z,0
2019-05-05T02:54:45.524Z,0
2019-05-05T02:55:44.689Z,0
2019-05-05T02:56:44.816Z,0
2019-05-05T02:57:44.933Z,0
2019-05-05T02:58:44.954Z,0
2019-05-05T02:59:44.956Z,0
2019-05-05T03:00:45.118Z,0
2019-05-05T03:01:45.061Z,0
2019-05-05T03:02:45.163Z,0
2019-05-05T03:03:45.286Z,0
2019-05-05T03:04:45.394Z,0
2019-05-05T03:05:45.524Z,0
2019-05-05T03:06:45.648Z,0
2019-05-05T03:07:45.771Z,0
2019-05-05T03:08:45.811Z,0
2019-05-05T03:09:45.910Z,0
2019-05-05T03:10:46.050Z,0
2019-05-05T03:11:46.182Z,0
2019-05-05T03:12:46.172Z,0
2019-05-05T03:13:46.224Z,0
2019-05-05T03:14:46.370Z,1
2019-05-05T03:15:46.379Z,1
2019-05-05T03:16:46.544Z,0
2019-05-05T03:17:46.641Z,0
2019-05-05T03:18:46.663Z,1
2019-05-05T03:19:46.687Z,1
2019-05-05T03:20:46.696Z,1
2019-05-05T03:21:47.843Z,1
2019-05-05T03:22:46.898Z,1
2019-05-05T03:23:46.910Z,1
2019-05-05T03:24:47.055Z,2
2019-05-05T03:25:47.076Z,2
2019-05-05T03:26:47.178Z,3
2019-05-05T03:27:47.170Z,3
2019-05-05T03:28:47.205Z,3
2019-05-05T03:29:47.202Z,3
2019-05-05T03:30:47.275Z,4
2019-05-05T03:31:47.284Z,5
2019-05-05T03:32:47.325Z,6
2019-05-05T03:33:47.361Z,7
2019-05-05T03:34:47.380Z,8
2019-05-05T03:35:47.403Z,9
2019-05-05T03:36:47.417Z,11
2019-05-05T03:37:47.490Z,12
2019-05-05T03:38:47.560Z,14
2019-05-05T03:39:47.630Z,16
2019-05-05T03:40:47.683Z,17
2019-05-05T03:41:47.759Z,20
2019-05-05T03:42:47.941Z,23
2019-05-05T03:43:47.997Z,26
2019-05-05T03:44:48.046Z,29
2019-05-05T03:45:48.087Z,33
2019-05-05T03:46:48.147Z,37
2019-05-05T03:47:48.280Z,43
2019-05-05T03:48:48.340Z,48
2019-05-05T03:49:48.448Z,53
2019-05-05T03:50:48.544Z,61
2019-05-05T03:51:48.603Z,68
2019-05-05T03:52:48.709Z,75
2019-05-05T03:53:48.774Z,83
2019-05-05T03:54:48.851Z,90
2019-05-05T03:55:48.919Z,100
2019-05-05T03:56:48.986Z,108
2019-05-05T03:57:49.069Z,115
2019-05-05T03:58:49.115Z,125
2019-05-05T03:59:49.210Z,137
2019-05-05T04:00:49.260Z,146
2019-05-05T04:01:49.334Z,160
2019-05-05T04:02:49.437Z,169
2019-05-05T04:03:49.499Z,183
2019-05-05T04:04:49.575Z,192
2019-05-05T04:05:49.635Z,207
2019-05-05T04:06:49.695Z,220
2019-05-05T04:07:49.781Z,232
2019-05-05T04:08:49.842Z,250
2019-05-05T04:09:49.913Z,265
2019-05-05T04:10:49.972Z,280
2019-05-05T04:11:50.047Z,297
2019-05-05T04:12:50.133Z,318
2019-05-05T04:13:50.183Z,339
2019-05-05T04:14:50.212Z,365
2019-05-05T04:15:50.336Z,388
2019-05-05T04:16:50.397Z,393
2019-05-05T04:17:53.418Z,407
2019-05-05T04:18:50.570Z,434
2019-05-05T04:19:50.740Z,442
2019-05-05T04:20:50.813Z,467
2019-05-05T04:21:50.927Z,476
2019-05-05T04:22:50.957Z,507
2019-05-05T04:23:51.033Z,511
2019-05-05T04:24:51.132Z,543
2019-05-05T04:25:51.192Z,559
2019-05-05T04:26:51.250Z,574
2019-05-05T04:27:51.288Z,588
2019-05-05T04:28:51.339Z,632
2019-05-05T04:29:51.384Z,652
2019-05-05T04:30:53.493Z,660
2019-05-05T04:31:51.525Z,663
2019-05-05T04:32:51.652Z,668
2019-05-05T04:33:53.757Z,706
2019-05-05T04:34:54.063Z,759
2019-05-05T04:35:51.905Z,778
2019-05-05T04:36:51.896Z,822
2019-05-05T04:37:53.992Z,958
2019-05-05T04:38:54.277Z,990
2019-05-05T04:39:53.693Z,1045
2019-05-05T04:40:54.144Z,1097
2019-05-05T04:41:54.508Z,1140
2019-05-05T04:42:54.615Z,1200
2019-05-05T04:43:54.658Z,1255
2019-05-05T04:44:53.753Z,1294
2019-05-05T04:45:54.074Z,1288
2019-05-05T04:46:54.557Z,1310
2019-05-05T04:47:53.895Z,1197
2019-05-05T04:48:54.390Z,1195
2019-05-05T04:49:53.783Z,1280
2019-05-05T04:50:54.377Z,1376
2019-05-05T04:51:53.862Z,1398
2019-05-05T04:52:54.002Z,1493
2019-05-05T04:53:54.263Z,1488
2019-05-05T04:54:55.626Z,1447
2019-05-05T04:55:53.784Z,1331
2019-05-05T04:56:54.107Z,1337
2019-05-05T04:57:54.164Z,1259
2019-05-05T04:58:54.459Z,1204
2019-05-05T04:59:54.325Z,1104
2019-05-05T05:00:54.724Z,1090
2019-05-05T05:01:54.731Z,1031
2019-05-05T05:02:54.536Z,1036
2019-05-05T05:03:54.665Z,1055
2019-05-05T05:04:54.728Z,1121
2019-05-05T05:05:54.733Z,1202
2019-05-05T05:06:55.799Z,1292
2019-05-05T05:07:57.863Z,1290
2019-05-05T05:08:55.065Z,1237
2019-05-05T05:09:55.111Z,1303
2019-05-05T05:10:55.239Z,1373
2019-05-05T05:11:55.388Z,1407
2019-05-05T05:12:55.347Z,1515
2019-05-05T05:13:55.452Z,1600
2019-05-05T05:14:55.562Z,1654
2019-05-05T05:15:55.564Z,1805
2019-05-05T05:16:55.680Z,1940
2019-05-05T05:17:55.679Z,2017
2019-05-05T05:18:55.829Z,1987
2019-05-05T05:19:55.920Z,1944
2019-05-05T05:20:55.905Z,1914
2019-05-05T05:22:00.991Z,1887
2019-05-05T05:22:56.173Z,1878
2019-05-05T05:23:56.299Z,1893
2019-05-05T05:24:56.385Z,1930
2019-05-05T05:25:56.441Z,1958
2019-05-05T05:26:56.493Z,2053
2019-05-05T05:27:56.574Z,2033
2019-05-05T05:28:56.622Z,1988
2019-05-05T05:29:56.783Z,2036
2019-05-05T05:30:56.910Z,2036
2019-05-05T05:31:57.006Z,2031
2019-05-05T05:32:57.074Z,2022
2019-05-05T05:33:57.179Z,2013
2019-05-05T05:34:57.363Z,2010
2019-05-05T05:35:57.361Z,1983
2019-05-05T05:36:57.444Z,2094
2019-05-05T05:37:57.813Z,2213
2019-05-05T05:38:57.575Z,2267
2019-05-05T05:39:57.662Z,2331
2019-05-05T05:40:57.754Z,2417
2019-05-05T05:41:57.841Z,2398
2019-05-05T05:42:57.956Z,2555
2019-05-05T05:43:58.046Z,2667
2019-05-05T05:44:58.156Z,2834
2019-05-05T05:45:58.236Z,2864
2019-05-05T05:46:58.242Z,2788
2019-05-05T05:47:58.395Z,3032
2019-05-05T05:48:58.420Z,2949
2019-05-05T05:49:58.522Z,3115
2019-05-05T05:50:58.747Z,3342
2019-05-05T05:52:11.578Z,3504
2019-05-05T05:52:59.716Z,3421
2019-05-05T05:53:58.823Z,3530
2019-05-05T05:54:58.895Z,3389
2019-05-05T05:55:59.011Z,3602
2019-05-05T05:56:59.072Z,3786
2019-05-05T05:57:59.200Z,3828
2019-05-05T05:58:59.304Z,4018
2019-05-05T05:59:59.447Z,4107
2019-05-05T06:00:59.497Z,4100
2019-05-05T06:02:08.932Z,3989
2019-05-05T06:03:00.646Z,3982
2019-05-05T06:03:59.793Z,4023
2019-05-05T06:04:59.849Z,3719
2019-05-05T06:05:59.985Z,3815
2019-05-05T06:07:00.022Z,3959
2019-05-05T06:08:00.075Z,4141
2019-05-05T06:09:00.120Z,4238
2019-05-05T06:10:00.105Z,4125
2019-05-05T06:11:01.306Z,4165
2019-05-05T06:12:00.334Z,4182
2019-05-05T06:13:00.336Z,4210
2019-05-05T06:14:00.341Z,4230
2019-05-05T06:15:00.383Z,4162
2019-05-05T06:16:00.385Z,4044
2019-05-05T06:17:00.465Z,3912
2019-05-05T06:18:00.558Z,3858
2019-05-05T06:19:00.637Z,3889
2019-05-05T06:20:00.750Z,3834
2019-05-05T06:21:00.866Z,3724
2019-05-05T06:22:00.982Z,3595
2019-05-05T06:23:01.113Z,3618
2019-05-05T06:24:01.175Z,3296
2019-05-05T06:25:01.220Z,3430
2019-05-05T06:26:06.240Z,3876
2019-05-05T06:27:03.570Z,3878
2019-05-05T06:28:01.354Z,3654
2019-05-05T06:29:01.441Z,3242
2019-05-05T06:30:01.530Z,3107
2019-05-05T06:31:01.643Z,3371
2019-05-05T06:32:03.866Z,3555
2019-05-05T06:33:01.799Z,3363
2019-05-05T06:34:03.640Z,3111
2019-05-05T06:35:03.653Z,3146
2019-05-05T06:36:03.740Z,3107
2019-05-05T06:37:04.059Z,3351
2019-05-05T06:38:04.447Z,3346
2019-05-05T06:39:04.457Z,3371
2019-05-05T06:40:03.752Z,3399
2019-05-05T06:41:04.173Z,3363
2019-05-05T06:42:04.454Z,3254
2019-05-05T06:43:04.388Z,3073
2019-05-05T06:44:03.676Z,3108
2019-05-05T06:45:04.114Z,3506
2019-05-05T06:46:04.036Z,3819
2019-05-05T06:47:04.635Z,3948
2019-05-05T06:48:04.351Z,4043
2019-05-05T06:49:04.394Z,4193
2019-05-05T06:50:04.101Z,4598
2019-05-05T06:51:04.259Z,4675
2019-05-05T06:52:04.358Z,4927
2019-05-05T06:53:04.427Z,5111
2019-05-05T06:54:04.600Z,5063
2019-05-05T06:55:04.295Z,4947
2019-05-05T06:56:04.457Z,4870
2019-05-05T06:57:04.744Z,4881
2019-05-05T06:58:04.572Z,4846
2019-05-05T06:59:04.828Z,4607
2019-05-05T07:00:03.855Z,4020
2019-05-05T07:01:04.987Z,3763
2019-05-05T07:02:05.028Z,3688
2019-05-05T07:03:07.628Z,3764
2019-05-05T07:04:04.218Z,3786
2019-05-05T07:05:05.369Z,3806
2019-05-05T07:06:04.601Z,3599
2019-05-05T07:07:05.404Z,3347
2019-05-05T07:08:04.605Z,3115
2019-05-05T07:09:05.607Z,2894
2019-05-05T07:10:04.491Z,3016
2019-05-05T07:11:05.492Z,3276
2019-05-05T07:12:04.757Z,3593
2019-05-05T07:13:05.002Z,4260
2019-05-05T07:14:05.650Z,4619
2019-05-05T07:15:04.640Z,4692
2019-05-05T07:16:05.648Z,4611
2019-05-05T07:17:05.820Z,4351
2019-05-05T07:18:04.832Z,4543
2019-05-05T07:19:05.836Z,4792
2019-05-05T07:20:04.835Z,5009
2019-05-05T07:21:04.842Z,5152
2019-05-05T07:22:05.849Z,4068
2019-05-05T07:23:06.036Z,4142
2019-05-05T07:24:05.011Z,3893
2019-05-05T07:25:06.014Z,4035
2019-05-05T07:26:05.010Z,5135
2019-05-05T07:27:06.021Z,5773
2019-05-05T07:28:05.033Z,5841
2019-05-05T07:29:06.049Z,5827
2019-05-05T07:30:06.049Z,4673
2019-05-05T07:31:05.087Z,4389
2019-05-05T07:32:06.027Z,4348
2019-05-05T07:33:05.070Z,5183
2019-05-05T07:34:06.068Z,6210
2019-05-05T07:35:05.062Z,7001
2019-05-05T07:36:06.241Z,7515
2019-05-05T07:37:05.223Z,7874
2019-05-05T07:38:05.288Z,7758
2019-05-05T07:39:05.341Z,7620
2019-05-05T07:40:05.358Z,7645
2019-05-05T07:41:05.390Z,7526
2019-05-05T07:42:05.407Z,6789
2019-05-05T07:43:05.433Z,6423
2019-05-05T07:44:05.440Z,6107
2019-05-05T07:45:18.427Z,6263
2019-05-05T07:46:05.615Z,5854
2019-05-05T07:47:05.620Z,5092
2019-05-05T07:48:05.694Z,4249
2019-05-05T07:49:05.710Z,3774
2019-05-05T07:50:05.721Z,3502
2019-05-05T07:51:06.704Z,3186
2019-05-05T07:52:05.872Z,2976
2019-05-05T07:53:14.092Z,2914
2019-05-05T07:54:07.156Z,3064
2019-05-05T07:55:06.132Z,3666
2019-05-05T07:56:07.675Z,3926
2019-05-05T07:57:06.310Z,3807
2019-05-05T07:58:06.307Z,3914
2019-05-05T07:59:06.519Z,3853
2019-05-05T08:00:06.500Z,3478
2019-05-05T08:01:06.569Z,3756
2019-05-05T08:02:06.587Z,4218
2019-05-05T08:03:06.606Z,4210
2019-05-05T08:04:06.840Z,4128
2019-05-05T08:05:06.855Z,5006
2019-05-05T08:06:06.869Z,5836
2019-05-05T08:07:06.879Z,5737
2019-05-05T08:08:06.878Z,5038
2019-05-05T08:09:06.908Z,4354
2019-05-05T08:10:06.901Z,4063
2019-05-05T08:11:06.919Z,4016
2019-05-05T08:12:06.919Z,4020
2019-05-05T08:13:06.926Z,4450
2019-05-05T08:14:07.020Z,5090
2019-05-05T08:15:07.024Z,5735
2019-05-05T08:16:07.042Z,5698
2019-05-05T08:17:07.040Z,4953
2019-05-05T08:18:07.056Z,4619
2019-05-05T08:19:07.085Z,5327
2019-05-05T08:20:07.087Z,5695
2019-05-05T08:21:07.254Z,6707
2019-05-05T08:22:07.243Z,7410
2019-05-05T08:23:08.278Z,8125
2019-05-05T08:24:08.435Z,8758
2019-05-05T08:25:07.458Z,9371
2019-05-05T08:26:07.486Z,9877
2019-05-05T08:27:07.526Z,10518
2019-05-05T08:28:07.487Z,10878
2019-05-05T08:29:07.500Z,11159
2019-05-05T08:30:07.553Z,11380
2019-05-05T08:31:07.583Z,11643
2019-05-05T08:32:07.610Z,12313
2019-05-05T08:33:07.695Z,12191
2019-05-05T08:34:07.694Z,12182
2019-05-05T08:35:07.745Z,12424
2019-05-05T08:36:08.781Z,13141
2019-05-05T08:37:07.795Z,14362
2019-05-05T08:38:07.812Z,13330
2019-05-05T08:39:07.820Z,12964
2019-05-05T08:40:07.913Z,13098
2019-05-05T08:41:07.946Z,13250
2019-05-05T08:42:07.953Z,14070
2019-05-05T08:43:07.983Z,13973
2019-05-05T08:44:08.010Z,13636
2019-05-05T08:45:08.199Z,13329
2019-05-05T08:46:08.041Z,13327
2019-05-05T08:47:08.032Z,13740
2019-05-05T08:48:08.038Z,14084
2019-05-05T08:49:08.230Z,14472
2019-05-05T08:50:08.288Z,14855
2019-05-05T08:51:08.346Z,13872
2019-05-05T08:52:08.419Z,14459
2019-05-05T08:53:08.642Z,14723
2019-05-05T08:54:08.466Z,15374
2019-05-05T08:55:08.490Z,16232
2019-05-05T08:56:08.526Z,16864
2019-05-05T08:57:08.566Z,15968
2019-05-05T08:58:08.606Z,16968
2019-05-05T08:59:08.607Z,15913
2019-05-05T09:00:08.674Z,15649
2019-05-05T09:01:08.727Z,15175
2019-05-05T09:02:08.750Z,15617
2019-05-05T09:03:08.757Z,16600
2019-05-05T09:04:08.814Z,16864
2019-05-05T09:05:08.863Z,15980
2019-05-05T09:06:08.900Z,16512
2019-05-05T09:07:08.936Z,16007
2019-05-05T09:08:08.956Z,17312
2019-05-05T09:09:08.956Z,16592
2019-05-05T09:10:08.967Z,17032
2019-05-05T09:11:09.036Z,16400
2019-05-05T09:12:09.057Z,16784
2019-05-05T09:13:09.112Z,15381
2019-05-05T09:14:09.132Z,13055
2019-05-05T09:15:09.283Z,12507
2019-05-05T09:16:09.210Z,14865
2019-05-05T09:17:09.244Z,14967
2019-05-05T09:18:09.307Z,13214
2019-05-05T09:19:09.343Z,13201
2019-05-05T09:20:09.343Z,14206
2019-05-05T09:21:09.398Z,13946
2019-05-05T09:22:09.422Z,12268
2019-05-05T09:23:09.424Z,12191
2019-05-05T09:24:09.446Z,11104
2019-05-05T09:25:09.474Z,9050
2019-05-05T09:26:09.566Z,10767
2019-05-05T09:27:09.610Z,10053
2019-05-05T09:28:09.619Z,9003
2019-05-05T09:29:09.631Z,10250
2019-05-05T09:30:09.760Z,11439
2019-05-05T09:31:09.813Z,12449
2019-05-05T09:32:09.855Z,13344
2019-05-05T09:33:09.866Z,13594
2019-05-05T09:34:09.901Z,9746
2019-05-05T09:35:09.931Z,10520
2019-05-05T09:36:09.983Z,12563
2019-05-05T09:37:10.014Z,12846
2019-05-05T09:38:10.023Z,8827
2019-05-05T09:39:10.065Z,7476
2019-05-05T09:40:10.122Z,8001
2019-05-05T09:41:10.195Z,7123
2019-05-05T09:42:10.256Z,7213
2019-05-05T09:43:10.270Z,8084
2019-05-05T09:44:10.277Z,15234
2019-05-05T09:45:10.300Z,8256
2019-05-05T09:46:10.308Z,9464
2019-05-05T09:47:10.364Z,9816
2019-05-05T09:48:10.417Z,9170
2019-05-05T09:49:10.427Z,8788
2019-05-05T09:50:10.494Z,10040
2019-05-05T09:51:10.556Z,14751
2019-05-05T09:52:10.618Z,15997
2019-05-05T09:53:10.638Z,13594
2019-05-05T09:54:14.210Z,9504
2019-05-05T09:55:10.823Z,8975
2019-05-05T09:56:10.824Z,7201
2019-05-05T09:57:10.886Z,9531
2019-05-05T09:58:10.916Z,10655
2019-05-05T09:59:10.936Z,10061
2019-05-05T10:00:10.966Z,13334
2019-05-05T10:01:10.986Z,17048
2019-05-05T10:02:11.024Z,19960
2019-05-05T10:03:11.065Z,22272
2019-05-05T10:04:11.118Z,22432
2019-05-05T10:05:13.898Z,19864
2019-05-05T10:06:11.188Z,15886
2019-05-05T10:07:13.497Z,11448
2019-05-05T10:08:11.300Z,8964
2019-05-05T10:09:13.535Z,6879
2019-05-05T10:10:13.609Z,5310
2019-05-05T10:11:11.438Z,3138
2019-05-05T10:12:11.535Z,2594
2019-05-05T10:13:11.580Z,2791
2019-05-05T10:14:11.703Z,3723
2019-05-05T10:15:13.823Z,4558
2019-05-05T10:16:11.878Z,4737
2019-05-05T10:17:14.054Z,4488
2019-05-05T10:18:14.000Z,4657
2019-05-05T10:19:13.872Z,5075
2019-05-05T10:20:14.266Z,5299
2019-05-05T10:21:13.814Z,5326
2019-05-05T10:22:14.496Z,5160
2019-05-05T10:23:14.111Z,4779
2019-05-05T10:24:26.985Z,4457
2019-05-05T10:25:13.338Z,4124
2019-05-05T10:26:14.894Z,4001
2019-05-05T10:27:13.510Z,3794
2019-05-05T10:28:13.528Z,3683
2019-05-05T10:29:13.588Z,3506
2019-05-05T10:30:14.243Z,3613
2019-05-05T10:31:13.774Z,3947
2019-05-05T10:32:13.785Z,4012
2019-05-05T10:33:14.219Z,4033
2019-05-05T10:34:13.609Z,3959
2019-05-05T10:35:14.307Z,4173
2019-05-05T10:36:13.804Z,4573
2019-05-05T10:37:14.212Z,4978
2019-05-05T10:38:14.462Z,5378
2019-05-05T10:39:14.145Z,5968
2019-05-05T10:40:14.166Z,6313
2019-05-05T10:41:13.576Z,6585
2019-05-05T10:42:14.438Z,6735
2019-05-05T10:43:14.787Z,7201
2019-05-05T10:44:14.391Z,8079
2019-05-05T10:45:13.621Z,9120
2019-05-05T10:46:14.321Z,10252
2019-05-05T10:47:14.478Z,10610
2019-05-05T10:48:14.613Z,10191
2019-05-05T10:49:13.749Z,9720
2019-05-05T10:50:14.690Z,9437
2019-05-05T10:51:14.718Z,9406
2019-05-05T10:52:14.281Z,10224
2019-05-05T10:53:13.884Z,12232
2019-05-05T10:54:14.251Z,13892
2019-05-05T10:55:14.499Z,15549
2019-05-05T10:56:13.948Z,21056
2019-05-05T10:57:14.858Z,19800
2019-05-05T10:58:14.073Z,11921
2019-05-05T10:59:15.142Z,10120
2019-05-05T11:00:15.517Z,9501
2019-05-05T11:01:14.570Z,8896
2019-05-05T11:02:14.264Z,8514
2019-05-05T11:03:15.396Z,8077
2019-05-05T11:04:14.297Z,7730
2019-05-05T11:05:14.313Z,7617
2019-05-05T11:06:14.359Z,7515
2019-05-05T11:07:14.725Z,7538
2019-05-05T11:08:14.389Z,7803
2019-05-05T11:09:14.507Z,8005
2019-05-05T11:10:15.537Z,8474
2019-05-05T11:11:14.558Z,8876
2019-05-05T11:12:15.606Z,9506
2019-05-05T11:13:14.642Z,9919
2019-05-05T11:14:15.740Z,10515
2019-05-05T11:15:14.789Z,11472
2019-05-05T11:16:15.865Z,12946
2019-05-05T11:17:14.939Z,15594
2019-05-05T11:18:15.928Z,19672
2019-05-05T11:19:15.176Z,26616
2019-05-05T11:20:15.237Z,46888
2019-05-05T11:21:16.271Z,58096
2019-05-05T11:22:15.464Z,65535
2019-05-05T11:23:15.546Z,30048
2019-05-05T11:24:16.601Z,49512
2019-05-05T11:25:15.682Z,65535
2019-05-05T11:26:15.853Z,65535
2019-05-05T11:27:15.978Z,65535
2019-05-05T11:28:15.950Z,65535
2019-05-05T11:29:16.127Z,65535
2019-05-05T11:30:16.196Z,64376
2019-05-05T11:31:17.214Z,65535
2019-05-05T11:32:16.286Z,65535
2019-05-05T11:33:16.372Z,65535
2019-05-05T11:34:16.532Z,65535
2019-05-05T11:35:16.636Z,65535
2019-05-05T11:36:16.710Z,65535
2019-05-05T11:37:16.832Z,65535
2019-05-05T11:38:16.978Z,40112
2019-05-05T11:39:17.306Z,14568
2019-05-05T11:40:17.244Z,14671
2019-05-05T11:41:17.298Z,37016
2019-05-05T11:42:17.459Z,15185
2019-05-05T11:43:17.327Z,9998
2019-05-05T11:44:17.434Z,8723
2019-05-05T11:45:17.505Z,9287
2019-05-05T11:46:18.553Z,10447
2019-05-05T11:47:17.551Z,10021
2019-05-05T11:48:17.615Z,8707
2019-05-05T11:49:17.643Z,7841
2019-05-05T11:50:17.656Z,7964
2019-05-05T11:51:17.680Z,7973
2019-05-05T11:52:17.716Z,8980
2019-05-05T11:53:17.770Z,9974
2019-05-05T11:54:17.776Z,10983
2019-05-05T11:55:17.789Z,12006
2019-05-05T11:56:17.837Z,12806
2019-05-05T11:57:17.848Z,13173
2019-05-05T11:58:17.872Z,13341
2019-05-05T11:59:17.925Z,13331
2019-05-05T12:00:17.948Z,12699
2019-05-05T12:01:17.995Z,11900
2019-05-05T12:02:19.035Z,11013
2019-05-05T12:03:18.019Z,10168
2019-05-05T12:04:18.065Z,9967
2019-05-05T12:05:18.100Z,10364
2019-05-05T12:06:18.180Z,11289
2019-05-05T12:07:19.182Z,12437
2019-05-05T12:08:18.197Z,13562
2019-05-05T12:09:18.213Z,14612
2019-05-05T12:10:18.235Z,15338
2019-05-05T12:11:18.249Z,16184
2019-05-05T12:12:18.341Z,18008
2019-05-05T12:13:18.366Z,21176
2019-05-05T12:14:18.379Z,24040
2019-05-05T12:15:18.384Z,65535
2019-05-05T12:16:18.438Z,55840
2019-05-05T12:17:18.528Z,65535
2019-05-05T12:18:18.554Z,65535
2019-05-05T12:19:18.592Z,41688
2019-05-05T12:20:18.618Z,22832
2019-05-05T12:21:18.670Z,20960
2019-05-05T12:22:18.714Z,21912
2019-05-05T12:23:18.835Z,32880
2019-05-05T12:24:18.848Z,64208
2019-05-05T12:25:25.914Z,65535
2019-05-05T12:26:19.892Z,65535
2019-05-05T12:27:19.103Z,65535
2019-05-05T12:28:19.128Z,65535
2019-05-05T12:29:19.174Z,65535
2019-05-05T12:30:19.101Z,57064
2019-05-05T12:31:19.173Z,58792
2019-05-05T12:32:19.240Z,54232
2019-05-05T12:33:19.279Z,31632
2019-05-05T12:34:19.337Z,27960
2019-05-05T12:35:19.336Z,58136
2019-05-05T12:36:19.408Z,37152
2019-05-05T12:37:19.469Z,43280
2019-05-05T12:38:19.552Z,17424
2019-05-05T12:39:19.588Z,12169
2019-05-05T12:40:19.660Z,9154
2019-05-05T12:41:20.983Z,7665
2019-05-05T12:42:19.739Z,6663
2019-05-05T12:43:19.777Z,5607
2019-05-05T12:44:19.837Z,5167
2019-05-05T12:45:19.962Z,4873
2019-05-05T12:46:20.024Z,4798
2019-05-05T12:47:20.031Z,4701
2019-05-05T12:48:20.122Z,4817
2019-05-05T12:49:22.583Z,4764
2019-05-05T12:50:20.279Z,4730
2019-05-05T12:51:20.279Z,4668
2019-05-05T12:52:20.360Z,4570
2019-05-05T12:53:20.452Z,4702
2019-05-05T12:54:20.568Z,4901
2019-05-05T12:55:20.611Z,5272
2019-05-05T12:56:20.627Z,5912
2019-05-05T12:57:20.644Z,6180
2019-05-05T12:58:20.711Z,6905
2019-05-05T12:59:20.743Z,7596
2019-05-05T13:00:20.749Z,8255
2019-05-05T13:01:20.764Z,9170
2019-05-05T13:02:20.772Z,9710
2019-05-05T13:03:20.884Z,10521
2019-05-05T13:04:20.796Z,11170
2019-05-05T13:05:20.833Z,12188
2019-05-05T13:06:20.842Z,13742
2019-05-05T13:07:20.873Z,15939
2019-05-05T13:08:20.945Z,20808
2019-05-05T13:09:20.966Z,21928
2019-05-05T13:10:21.000Z,33504
2019-05-05T13:11:21.105Z,58744
2019-05-05T13:12:21.202Z,64344
2019-05-05T13:13:21.306Z,21048
2019-05-05T13:14:21.403Z,17456
2019-05-05T13:15:21.448Z,18680
2019-05-05T13:16:23.036Z,18560
2019-05-05T13:17:21.519Z,16184
2019-05-05T13:18:21.634Z,14215
2019-05-05T13:19:24.031Z,12907
2019-05-05T13:20:21.820Z,12918
2019-05-05T13:21:23.494Z,13737
2019-05-05T13:22:21.928Z,14305
2019-05-05T13:23:23.521Z,13641
2019-05-05T13:24:23.804Z,11273
2019-05-05T13:25:22.171Z,9567
2019-05-05T13:26:23.645Z,8217
2019-05-05T13:27:24.676Z,8149
2019-05-05T13:28:23.787Z,7905
2019-05-05T13:29:24.385Z,7845
2019-05-05T13:30:23.592Z,7587
2019-05-05T13:31:22.556Z,7412
2019-05-05T13:32:24.480Z,7392
2019-05-05T13:33:24.438Z,6870
2019-05-05T13:34:22.724Z,6573
2019-05-05T13:35:23.487Z,6229
2019-05-05T13:36:24.145Z,6177
2019-05-05T13:37:24.417Z,5469